»·PEaware :: XSR250 KABQ-KDRO

XSR250 :: KABQ-KDRO

FLIGHT INFORMATION

Flight Status: Arrived
Operator: Unknown
More flights by this operator :: More flights under this callsign
Pilot: Anonymous 13363 (13363)
Aircraft: BEECH AIRCRAFT SUPER KING AIR COMMUTER
(BE20)
More flights by this aircraft type
Origin: KABQ Albuquerque Intl Sunport
United States
Destination: KDRO Durango-La Plata Co
United States
More flights between these airports :: More routes between these airports
Route: +LARGO3 RSK DRO
File this flight plan on PilotEdge
Remarks:
Altitude:
(Current/Filed)
30,000ft
Speed:
(Current/Filed)
326kts
Departed: 09-Feb-18 03:23 PM
Arrived: 09-Feb-18 04:08 PM
Distance/Time
Traveled:
138nm/0:45
Distance/Time
To Go:
Arrived

Flight Plot

Page will automatically refresh every two minutes.

Flight plan parsing failed; only flown route is shown


Map Options




Map Legend


Flown Route
Filed Route
Departure Airport
Arrival Airport
Navaid (VOR, NDB)
Fix

Horizontal Profiles

Position Reports

Time Latitude Longitude Heading Altitude Ground
Speed
09-Feb-18 15:20 35.036072 -106.618683 223 5312ft 0kts
09-Feb-18 15:21 35.036072 -106.618683 223 5312ft 0kts
09-Feb-18 15:22 35.036072 -106.618683 223 5312ft 0kts
09-Feb-18 15:23 35.036072 -106.618683 223 5312ft 0kts
09-Feb-18 15:24 35.036072 -106.618683 223 5312ft 0kts
09-Feb-18 15:25 35.036072 -106.618683 223 5312ft 0kts
09-Feb-18 15:25 35.036072 -106.618683 223 5312ft 0kts
09-Feb-18 15:27 35.033714 -106.618868 223 5313ft 28kts
09-Feb-18 15:28 35.028148 -106.625563 218 5312ft 17kts
09-Feb-18 15:28 35.025259 -106.629022 222 5313ft 21kts
09-Feb-18 15:30 35.024480 -106.627836 42 5313ft 81kts
09-Feb-18 15:31 35.057798 -106.606929 330 6919ft 157kts
09-Feb-18 15:32 35.094359 -106.641327 317 8976ft 191kts
09-Feb-18 15:33 35.136718 -106.686374 317 10992ft 205kts
09-Feb-18 15:33 35.170831 -106.727208 307 12798ft 209kts
09-Feb-18 15:34 35.209778 -106.780540 307 14895ft 205kts
09-Feb-18 15:36 35.252046 -106.837499 307 17064ft 193kts
09-Feb-18 15:36 35.291588 -106.860252 348 18320ft 210kts
09-Feb-18 15:37 35.348648 -106.867138 346 20167ft 200kts
09-Feb-18 15:38 35.401282 -106.874560 344 22146ft 184kts
09-Feb-18 15:39 35.449267 -106.881524 343 24115ft 166kts
09-Feb-18 15:40 35.495413 -106.888430 343 25567ft 170kts
09-Feb-18 15:41 35.542822 -106.895441 343 26863ft 174kts
09-Feb-18 15:42 35.591039 -106.902552 343 28008ft 177kts
09-Feb-18 15:43 35.640057 -106.909778 343 29024ft 179kts
09-Feb-18 15:44 35.689889 -106.917128 342 29914ft 183kts
09-Feb-18 15:45 35.744624 -106.925378 344 30027ft 213kts
09-Feb-18 15:46 35.805910 -106.934367 344 30024ft 230kts
09-Feb-18 15:47 35.870838 -106.943887 344 30021ft 239kts
09-Feb-18 15:48 35.937252 -106.953690 344 30020ft 242kts
09-Feb-18 15:49 36.003977 -106.963579 344 30019ft 243kts
09-Feb-18 15:50 36.050020 -107.013154 306 30017ft 224kts
09-Feb-18 15:51 36.089473 -107.072880 306 29997ft 225kts
09-Feb-18 15:52 36.130782 -107.136495 306 28964ft 250kts
09-Feb-18 15:53 36.174694 -107.204340 306 27575ft 255kts
09-Feb-18 15:54 36.219137 -107.273170 306 26171ft 255kts
09-Feb-18 15:55 36.261653 -107.339158 306 24810ft 254kts
09-Feb-18 15:56 36.305459 -107.407280 306 23401ft 254kts
09-Feb-18 15:57 36.349193 -107.475421 306 21993ft 255kts
09-Feb-18 15:58 36.393300 -107.544291 306 20573ft 256kts
09-Feb-18 15:59 36.437261 -107.613071 306 19159ft 257kts
09-Feb-18 16:00 36.480603 -107.681045 306 17786ft 258kts
09-Feb-18 16:01 36.525084 -107.750892 305 16404ft 260kts
09-Feb-18 16:02 36.569948 -107.821518 305 15014ft 262kts
09-Feb-18 16:03 36.615224 -107.893251 307 13649ft 268kts
09-Feb-18 16:04 36.661659 -107.966397 307 13111ft 271kts
09-Feb-18 16:06 36.708084 -108.039879 307 12713ft 272kts
09-Feb-18 16:07 36.768745 -108.079069 21 12277ft 280kts
09-Feb-18 16:08 36.834343 -108.026879 32 11968ft 279kts
09-Feb-18 16:09 36.897492 -107.973183 30 11989ft 277kts
09-Feb-18 16:10 36.964941 -107.925195 21 11994ft 282kts
09-Feb-18 16:11 37.028703 -107.872955 35 11774ft 288kts
09-Feb-18 16:12 37.082813 -107.817163 35 10466ft 195kts
09-Feb-18 16:13 37.114157 -107.787260 25 8065ft 150kts
09-Feb-18 16:14 37.144646 -107.760303 34 6585ft 110kts
09-Feb-18 16:15 37.152900 -107.755010 36 6585ft 6kts
09-Feb-18 16:16 37.152933 -107.754979 36 6585ft 0kts
09-Feb-18 16:17 37.152933 -107.754979 36 6585ft 0kts
09-Feb-18 16:18 37.152933 -107.754979 36 6585ft 0kts
09-Feb-18 16:19 37.152933 -107.754979 36 6585ft 0kts
09-Feb-18 16:20 37.152933 -107.754979 36 6585ft 0kts
09-Feb-18 16:21 37.152933 -107.754979 36 6585ft 0kts
09-Feb-18 16:22 37.152933 -107.754979 36 6585ft 0kts
09-Feb-18 16:23 37.152933 -107.754979 36 6585ft 0kts
09-Feb-18 16:24 37.152933 -107.754979 36 6585ft 0kts
09-Feb-18 16:25 37.152933 -107.754979 36 6585ft 0kts
09-Feb-18 16:26 37.152933 -107.754979 36 6585ft 0kts
09-Feb-18 16:27 37.152933 -107.754979 36 6585ft 0kts
09-Feb-18 16:28 37.152933 -107.754979 36 6585ft 0kts

Navigation Log

Ident Type
Flight plan parsing failed, navigation log unavailable